IGO512F VABB-VOBL
Flight info
| Callsign | IGO512F |
|---|---|
| Flight time | 1h 18m |
| Altitude | 35000 |
| Route | VEVAK2A EPKOS Q9 RIKBU RIKBU7F |
| Aircraft | A21N/M-SDE3FGHIRWY/LB1 |
Departure
| Time | 2026-05-05 09:36 |
|---|---|
| Airport | Chhatrapati Shivaji Maharaj International Airport (VABB) |
Arrival
| Time | 2026-05-05 10:54 |
|---|---|
| Airport | Kempegowda International Airport Bengaluru (VOBL) |
| Time | Latitude | Longitude | Altitude | Speed | Heading |
|---|---|---|---|---|---|
| 2026-05-05 09:15 | 19.09495 | 72.87354 | 41 ft | 0 kts | 303° |
| 2026-05-05 09:24 | 19.09493 | 72.87356 | 41 ft | 2 kts | 303° |
| 2026-05-05 09:24 | 19.09484 | 72.87370 | 40 ft | 2 kts | 303° |
| 2026-05-05 09:24 | 19.09475 | 72.87385 | 40 ft | 2 kts | 303° |
| 2026-05-05 09:24 | 19.09467 | 72.87399 | 39 ft | 2 kts | 303° |
| 2026-05-05 09:25 | 19.09458 | 72.87413 | 39 ft | 2 kts | 313° |
| 2026-05-05 09:25 | 19.09443 | 72.87424 | 39 ft | 2 kts | 339° |
| 2026-05-05 09:25 | 19.09427 | 72.87427 | 38 ft | 2 kts | 3° |
| 2026-05-05 09:25 | 19.09410 | 72.87423 | 38 ft | 2 kts | 25° |
| 2026-05-05 09:26 | 19.09398 | 72.87415 | 37 ft | 0 kts | 45° |
| 2026-05-05 09:26 | 19.09393 | 72.87408 | 37 ft | 0 kts | 49° |
| 2026-05-05 09:29 | 19.09393 | 72.87409 | 37 ft | 0 kts | 49° |
| 2026-05-05 09:30 | 19.09397 | 72.87413 | 37 ft | 1 kts | 49° |
| 2026-05-05 09:30 | 19.09413 | 72.87448 | 37 ft | 9 kts | 79° |
| 2026-05-05 09:30 | 19.09366 | 72.87547 | 35 ft | 19 kts | 128° |
| 2026-05-05 09:30 | 19.09280 | 72.87656 | 34 ft | 15 kts | 140° |
| 2026-05-05 09:31 | 19.09182 | 72.87674 | 32 ft | 12 kts | 173° |
| 2026-05-05 09:31 | 19.09133 | 72.87742 | 32 ft | 12 kts | 86° |
| 2026-05-05 09:31 | 19.09109 | 72.87791 | 33 ft | 5 kts | 150° |
| 2026-05-05 09:31 | 19.09076 | 72.87813 | 33 ft | 5 kts | 131° |
| 2026-05-05 09:32 | 19.09061 | 72.87849 | 33 ft | 4 kts | 100° |
| 2026-05-05 09:32 | 19.09060 | 72.87878 | 34 ft | 2 kts | 90° |
| 2026-05-05 09:32 | 19.09060 | 72.87882 | 34 ft | 2 kts | 90° |
| 2026-05-05 09:32 | 19.09060 | 72.87890 | 35 ft | 0 kts | 90° |
| 2026-05-05 09:33 | 19.09060 | 72.87891 | 35 ft | 0 kts | 90° |
| 2026-05-05 09:33 | 19.09059 | 72.87901 | 35 ft | 4 kts | 90° |
| 2026-05-05 09:33 | 19.09059 | 72.87957 | 37 ft | 10 kts | 89° |
| 2026-05-05 09:33 | 19.09031 | 72.88042 | 39 ft | 15 kts | 151° |
| 2026-05-05 09:34 | 19.08917 | 72.88045 | 37 ft | 12 kts | 206° |
| 2026-05-05 09:34 | 19.08886 | 72.87959 | 36 ft | 13 kts | 270° |
| 2026-05-05 09:34 | 19.08886 | 72.87852 | 32 ft | 15 kts | 270° |
| 2026-05-05 09:34 | 19.08883 | 72.87730 | 30 ft | 16 kts | 269° |
| 2026-05-05 09:35 | 19.08881 | 72.87585 | 28 ft | 26 kts | 269° |
| 2026-05-05 09:35 | 19.08863 | 72.86252 | 34 ft | 149 kts | 269° |
| 2026-05-05 09:35 | 19.08842 | 72.84953 | 165 ft | 186 kts | 269° |
| 2026-05-05 09:36 | 19.08822 | 72.83627 | 994 ft | 175 kts | 270° |
| 2026-05-05 09:36 | 19.08802 | 72.82317 | 1700 ft | 176 kts | 270° |
| 2026-05-05 09:36 | 19.08781 | 72.81001 | 2097 ft | 186 kts | 270° |
| 2026-05-05 09:36 | 19.08762 | 72.79528 | 2175 ft | 207 kts | 270° |
| 2026-05-05 09:37 | 19.08761 | 72.77942 | 2461 ft | 218 kts | 270° |
| 2026-05-05 09:37 | 19.08724 | 72.76249 | 2778 ft | 231 kts | 269° |
| 2026-05-05 09:37 | 19.08680 | 72.74528 | 3121 ft | 239 kts | 266° |
| 2026-05-05 09:37 | 19.08210 | 72.72775 | 3434 ft | 255 kts | 234° |
| 2026-05-05 09:38 | 19.06734 | 72.71562 | 3714 ft | 272 kts | 201° |
| 2026-05-05 09:38 | 19.04787 | 72.71238 | 4070 ft | 277 kts | 184° |
| 2026-05-05 09:38 | 19.02781 | 72.71024 | 4435 ft | 279 kts | 185° |
| 2026-05-05 09:38 | 19.00792 | 72.71182 | 4796 ft | 283 kts | 170° |
| 2026-05-05 09:39 | 18.98780 | 72.71608 | 5393 ft | 287 kts | 169° |
| 2026-05-05 09:39 | 18.96746 | 72.72003 | 6139 ft | 285 kts | 171° |
| 2026-05-05 09:39 | 18.94768 | 72.72316 | 7004 ft | 279 kts | 172° |
| 2026-05-05 09:39 | 18.92775 | 72.72584 | 7660 ft | 281 kts | 173° |
| 2026-05-05 09:40 | 18.90797 | 72.72823 | 8244 ft | 284 kts | 173° |
| 2026-05-05 09:40 | 18.88730 | 72.73059 | 8713 ft | 286 kts | 173° |
| 2026-05-05 09:40 | 18.86678 | 72.73286 | 8845 ft | 287 kts | 173° |
| 2026-05-05 09:40 | 18.84615 | 72.73510 | 8849 ft | 286 kts | 173° |
| 2026-05-05 09:41 | 18.82620 | 72.73726 | 8851 ft | 286 kts | 173° |
| 2026-05-05 09:41 | 18.80560 | 72.73949 | 8862 ft | 288 kts | 173° |
| 2026-05-05 09:41 | 18.78502 | 72.74270 | 9206 ft | 293 kts | 163° |
| 2026-05-05 09:41 | 18.76549 | 72.75143 | 9906 ft | 291 kts | 148° |
| 2026-05-05 09:42 | 18.74797 | 72.76367 | 10366 ft | 298 kts | 144° |
| 2026-05-05 09:42 | 18.73021 | 72.77694 | 10617 ft | 312 kts | 144° |
| 2026-05-05 09:42 | 18.71156 | 72.79095 | 10895 ft | 325 kts | 144° |
| 2026-05-05 09:42 | 18.69178 | 72.80572 | 11390 ft | 330 kts | 144° |
| 2026-05-05 09:43 | 18.67229 | 72.82020 | 11949 ft | 333 kts | 144° |
| 2026-05-05 09:43 | 18.65240 | 72.83492 | 12492 ft | 336 kts | 144° |
| 2026-05-05 09:43 | 18.63268 | 72.84950 | 13026 ft | 338 kts | 144° |
| 2026-05-05 09:43 | 18.61299 | 72.86403 | 13553 ft | 341 kts | 144° |
| 2026-05-05 09:44 | 18.59320 | 72.87862 | 14070 ft | 343 kts | 144° |
| 2026-05-05 09:44 | 18.57255 | 72.89383 | 14596 ft | 345 kts | 144° |
| 2026-05-05 09:44 | 18.55259 | 72.90852 | 15093 ft | 348 kts | 144° |
| 2026-05-05 09:44 | 18.53251 | 72.92329 | 15583 ft | 350 kts | 144° |
| 2026-05-05 09:45 | 18.51246 | 72.93803 | 16062 ft | 352 kts | 144° |
| 2026-05-05 09:45 | 18.49100 | 72.95381 | 16564 ft | 355 kts | 144° |
| 2026-05-05 09:45 | 18.46916 | 72.96986 | 17062 ft | 357 kts | 144° |
| 2026-05-05 09:45 | 18.44758 | 72.98571 | 17541 ft | 360 kts | 144° |
| 2026-05-05 09:46 | 18.42613 | 73.00146 | 18005 ft | 362 kts | 144° |
| 2026-05-05 09:46 | 18.40457 | 73.01729 | 18462 ft | 364 kts | 144° |
| 2026-05-05 09:46 | 18.38275 | 73.03330 | 18914 ft | 367 kts | 144° |
| 2026-05-05 09:46 | 18.36097 | 73.04928 | 19355 ft | 369 kts | 144° |
| 2026-05-05 09:47 | 18.33908 | 73.06533 | 19790 ft | 371 kts | 144° |
| 2026-05-05 09:47 | 18.31681 | 73.08167 | 20225 ft | 373 kts | 144° |
| 2026-05-05 09:47 | 18.29444 | 73.09806 | 20653 ft | 376 kts | 144° |
| 2026-05-05 09:47 | 18.27180 | 73.11465 | 21080 ft | 378 kts | 144° |
| 2026-05-05 09:48 | 18.24929 | 73.13113 | 21492 ft | 380 kts | 144° |
| 2026-05-05 09:48 | 18.22701 | 73.14745 | 21893 ft | 382 kts | 144° |
| 2026-05-05 09:48 | 18.20413 | 73.16419 | 22295 ft | 384 kts | 144° |
| 2026-05-05 09:48 | 18.18108 | 73.18107 | 22689 ft | 386 kts | 144° |
| 2026-05-05 09:49 | 18.15808 | 73.19789 | 23071 ft | 388 kts | 144° |
| 2026-05-05 09:49 | 18.13556 | 73.21436 | 23434 ft | 390 kts | 144° |
| 2026-05-05 09:49 | 18.11211 | 73.23151 | 23804 ft | 392 kts | 144° |
| 2026-05-05 09:49 | 18.08863 | 73.24867 | 24166 ft | 394 kts | 144° |
| 2026-05-05 09:50 | 18.06481 | 73.26608 | 24522 ft | 395 kts | 144° |
| 2026-05-05 09:50 | 18.04138 | 73.28319 | 24864 ft | 397 kts | 144° |
| 2026-05-05 09:50 | 18.01780 | 73.30041 | 25198 ft | 399 kts | 144° |
| 2026-05-05 09:50 | 17.99387 | 73.31788 | 25527 ft | 401 kts | 144° |
| 2026-05-05 09:51 | 17.97079 | 73.33472 | 25835 ft | 402 kts | 144° |
| 2026-05-05 09:51 | 17.94735 | 73.35181 | 26142 ft | 404 kts | 144° |
| 2026-05-05 09:51 | 17.92399 | 73.36885 | 26436 ft | 406 kts | 144° |
| 2026-05-05 09:51 | 17.90046 | 73.38600 | 26724 ft | 407 kts | 144° |
| 2026-05-05 09:52 | 17.87656 | 73.40342 | 27011 ft | 409 kts | 144° |
| 2026-05-05 09:52 | 17.85206 | 73.42127 | 27299 ft | 410 kts | 144° |
| 2026-05-05 09:52 | 17.82721 | 73.43935 | 27586 ft | 412 kts | 144° |
| 2026-05-05 09:52 | 17.80182 | 73.45783 | 27874 ft | 413 kts | 144° |
| 2026-05-05 09:53 | 17.77687 | 73.47598 | 28152 ft | 415 kts | 144° |
| 2026-05-05 09:53 | 17.75175 | 73.49425 | 28427 ft | 416 kts | 144° |
| 2026-05-05 09:53 | 17.72679 | 73.51240 | 28694 ft | 418 kts | 144° |
| 2026-05-05 09:53 | 17.70153 | 73.53077 | 28959 ft | 419 kts | 144° |
| 2026-05-05 09:54 | 17.67663 | 73.54886 | 29215 ft | 421 kts | 144° |
| 2026-05-05 09:54 | 17.65213 | 73.56666 | 29463 ft | 422 kts | 144° |
| 2026-05-05 09:54 | 17.62785 | 73.58429 | 29705 ft | 423 kts | 144° |
| 2026-05-05 09:54 | 17.60321 | 73.60218 | 29942 ft | 425 kts | 144° |
| 2026-05-05 09:55 | 17.57867 | 73.61999 | 30174 ft | 426 kts | 144° |
| 2026-05-05 09:55 | 17.55401 | 73.63787 | 30403 ft | 428 kts | 144° |
| 2026-05-05 09:55 | 17.52923 | 73.65585 | 30628 ft | 429 kts | 144° |
| 2026-05-05 09:55 | 17.50463 | 73.67368 | 30850 ft | 430 kts | 144° |
| 2026-05-05 09:56 | 17.47942 | 73.69195 | 31072 ft | 431 kts | 144° |
| 2026-05-05 09:56 | 17.45413 | 73.71027 | 31289 ft | 433 kts | 144° |
| 2026-05-05 09:56 | 17.42814 | 73.72909 | 31508 ft | 434 kts | 144° |
| 2026-05-05 09:56 | 17.40262 | 73.74756 | 31717 ft | 435 kts | 144° |
| 2026-05-05 09:57 | 17.37694 | 73.76614 | 31947 ft | 436 kts | 144° |
| 2026-05-05 09:57 | 17.35145 | 73.78458 | 32234 ft | 435 kts | 144° |
| 2026-05-05 09:57 | 17.32639 | 73.80270 | 32526 ft | 433 kts | 144° |
| 2026-05-05 09:57 | 17.30134 | 73.82080 | 32806 ft | 432 kts | 144° |
| 2026-05-05 09:58 | 17.27628 | 73.83890 | 33069 ft | 432 kts | 144° |
| 2026-05-05 09:58 | 17.25102 | 73.85716 | 33294 ft | 432 kts | 144° |
| 2026-05-05 09:58 | 17.22501 | 73.87593 | 33498 ft | 433 kts | 144° |
| 2026-05-05 09:58 | 17.19925 | 73.89452 | 33694 ft | 433 kts | 144° |
| 2026-05-05 09:59 | 17.17363 | 73.91300 | 33890 ft | 434 kts | 144° |
| 2026-05-05 09:59 | 17.14814 | 73.93140 | 34083 ft | 434 kts | 144° |
| 2026-05-05 09:59 | 17.12311 | 73.94943 | 34264 ft | 435 kts | 144° |
| 2026-05-05 09:59 | 17.09785 | 73.96764 | 34435 ft | 436 kts | 144° |
| 2026-05-05 10:00 | 17.07269 | 73.98575 | 34569 ft | 437 kts | 144° |
| 2026-05-05 10:00 | 17.04743 | 74.00394 | 34681 ft | 439 kts | 144° |
| 2026-05-05 10:00 | 17.02132 | 74.02274 | 34794 ft | 441 kts | 144° |
| 2026-05-05 10:00 | 16.99506 | 74.04163 | 34815 ft | 444 kts | 144° |
| 2026-05-05 10:01 | 16.94317 | 74.07931 | 34820 ft | 446 kts | 143° |
| 2026-05-05 10:01 | 16.89433 | 74.12105 | 34821 ft | 446 kts | 136° |
| 2026-05-05 10:02 | 16.84991 | 74.16852 | 34822 ft | 446 kts | 130° |
| 2026-05-05 10:02 | 16.80961 | 74.22053 | 34822 ft | 446 kts | 128° |
| 2026-05-05 10:03 | 16.77009 | 74.27284 | 34821 ft | 446 kts | 128° |
| 2026-05-05 10:03 | 16.73063 | 74.32497 | 34821 ft | 446 kts | 128° |
| 2026-05-05 10:04 | 16.69108 | 74.37714 | 34821 ft | 446 kts | 128° |
| 2026-05-05 10:04 | 16.65061 | 74.43047 | 34822 ft | 446 kts | 128° |
| 2026-05-05 10:05 | 16.61178 | 74.48159 | 34822 ft | 446 kts | 128° |
| 2026-05-05 10:05 | 16.57241 | 74.53339 | 34822 ft | 446 kts | 128° |
| 2026-05-05 10:06 | 16.53111 | 74.58768 | 34822 ft | 446 kts | 128° |
| 2026-05-05 10:06 | 16.48972 | 74.64203 | 34822 ft | 446 kts | 128° |
| 2026-05-05 10:07 | 16.44888 | 74.69567 | 34822 ft | 446 kts | 128° |
| 2026-05-05 10:07 | 16.40768 | 74.74972 | 34822 ft | 446 kts | 128° |
| 2026-05-05 10:08 | 16.36902 | 74.80039 | 34822 ft | 446 kts | 128° |
| 2026-05-05 10:08 | 16.32979 | 74.85176 | 34821 ft | 446 kts | 128° |
| 2026-05-05 10:09 | 16.28960 | 74.90434 | 34822 ft | 446 kts | 128° |
| 2026-05-05 10:09 | 16.25019 | 74.95584 | 34823 ft | 444 kts | 128° |
| 2026-05-05 10:10 | 16.20991 | 75.00844 | 34825 ft | 443 kts | 127° |
| 2026-05-05 10:10 | 16.17020 | 75.06027 | 34825 ft | 442 kts | 127° |
| 2026-05-05 10:11 | 16.13041 | 75.11218 | 34823 ft | 442 kts | 127° |
| 2026-05-05 10:11 | 16.08997 | 75.16492 | 34822 ft | 442 kts | 127° |
| 2026-05-05 10:12 | 16.04918 | 75.21810 | 34823 ft | 442 kts | 127° |
| 2026-05-05 10:12 | 16.00803 | 75.27168 | 34823 ft | 441 kts | 127° |
| 2026-05-05 10:13 | 15.98104 | 75.30679 | 34823 ft | 441 kts | 127° |
| 2026-05-05 10:13 | 15.93212 | 75.37040 | 34822 ft | 441 kts | 127° |
| 2026-05-05 10:14 | 15.89284 | 75.42143 | 34822 ft | 442 kts | 127° |
| 2026-05-05 10:14 | 15.87366 | 75.44634 | 34658 ft | 442 kts | 127° |
| 2026-05-05 10:14 | 15.85398 | 75.47188 | 34401 ft | 442 kts | 127° |
| 2026-05-05 10:15 | 15.83410 | 75.49767 | 34143 ft | 443 kts | 127° |
| 2026-05-05 10:15 | 15.81424 | 75.52343 | 33885 ft | 444 kts | 127° |
| 2026-05-05 10:15 | 15.79448 | 75.54906 | 33628 ft | 445 kts | 127° |
| 2026-05-05 10:15 | 15.77434 | 75.57516 | 33367 ft | 446 kts | 127° |
| 2026-05-05 10:16 | 15.75421 | 75.60124 | 33107 ft | 446 kts | 127° |
| 2026-05-05 10:16 | 15.73354 | 75.62801 | 32865 ft | 446 kts | 127° |
| 2026-05-05 10:16 | 15.69332 | 75.68007 | 32824 ft | 446 kts | 127° |
| 2026-05-05 10:17 | 15.65338 | 75.73174 | 32823 ft | 446 kts | 127° |
| 2026-05-05 10:17 | 15.61338 | 75.78346 | 32822 ft | 446 kts | 127° |
| 2026-05-05 10:18 | 15.57122 | 75.83791 | 32822 ft | 446 kts | 127° |
| 2026-05-05 10:18 | 15.52969 | 75.89153 | 32822 ft | 446 kts | 127° |
| 2026-05-05 10:19 | 15.48954 | 75.94331 | 32822 ft | 446 kts | 127° |
| 2026-05-05 10:19 | 15.44830 | 75.99648 | 32822 ft | 446 kts | 127° |
| 2026-05-05 10:20 | 15.40678 | 76.04994 | 32822 ft | 446 kts | 127° |
| 2026-05-05 10:20 | 15.36627 | 76.10209 | 32822 ft | 446 kts | 127° |
| 2026-05-05 10:21 | 15.32641 | 76.15336 | 32822 ft | 446 kts | 127° |
| 2026-05-05 10:21 | 15.28374 | 76.20819 | 32828 ft | 446 kts | 127° |
| 2026-05-05 10:22 | 15.24238 | 76.26129 | 32845 ft | 446 kts | 127° |
| 2026-05-05 10:22 | 15.20254 | 76.31094 | 32878 ft | 446 kts | 130° |
| 2026-05-05 10:23 | 15.15805 | 76.35644 | 32918 ft | 448 kts | 137° |
| 2026-05-05 10:23 | 15.10861 | 76.39652 | 32942 ft | 449 kts | 143° |
| 2026-05-05 10:24 | 15.05515 | 76.43223 | 32952 ft | 450 kts | 146° |
| 2026-05-05 10:24 | 14.99745 | 76.46990 | 32956 ft | 450 kts | 146° |
| 2026-05-05 10:25 | 14.93918 | 76.50799 | 32957 ft | 449 kts | 145° |
| 2026-05-05 10:25 | 14.88194 | 76.54542 | 32957 ft | 448 kts | 145° |
| 2026-05-05 10:26 | 14.82479 | 76.58279 | 32957 ft | 447 kts | 145° |
| 2026-05-05 10:26 | 14.77097 | 76.61796 | 32956 ft | 447 kts | 145° |
| 2026-05-05 10:27 | 14.71698 | 76.65323 | 32957 ft | 447 kts | 146° |
| 2026-05-05 10:27 | 14.66283 | 76.68858 | 32957 ft | 447 kts | 146° |
| 2026-05-05 10:28 | 14.60785 | 76.72445 | 32957 ft | 447 kts | 146° |
| 2026-05-05 10:28 | 14.55127 | 76.76134 | 32957 ft | 447 kts | 146° |
| 2026-05-05 10:29 | 14.49510 | 76.79793 | 32957 ft | 447 kts | 146° |
| 2026-05-05 10:29 | 14.43882 | 76.83457 | 32956 ft | 448 kts | 146° |
| 2026-05-05 10:30 | 14.38212 | 76.87147 | 32956 ft | 448 kts | 146° |
| 2026-05-05 10:30 | 14.32444 | 76.90897 | 32956 ft | 449 kts | 146° |
| 2026-05-05 10:31 | 14.26673 | 76.94647 | 32956 ft | 450 kts | 146° |
| 2026-05-05 10:31 | 14.20955 | 76.98361 | 32937 ft | 450 kts | 146° |
| 2026-05-05 10:32 | 14.18195 | 77.00159 | 32476 ft | 452 kts | 146° |
| 2026-05-05 10:32 | 14.15293 | 77.02052 | 31393 ft | 460 kts | 146° |
| 2026-05-05 10:32 | 14.12308 | 77.03999 | 30474 ft | 462 kts | 146° |
| 2026-05-05 10:32 | 14.09282 | 77.05969 | 29752 ft | 459 kts | 146° |
| 2026-05-05 10:33 | 14.06333 | 77.07886 | 29152 ft | 455 kts | 146° |
| 2026-05-05 10:33 | 14.03383 | 77.09804 | 28582 ft | 449 kts | 146° |
| 2026-05-05 10:33 | 14.00493 | 77.11683 | 28039 ft | 444 kts | 146° |
| 2026-05-05 10:33 | 13.97675 | 77.13515 | 27510 ft | 439 kts | 146° |
| 2026-05-05 10:34 | 13.94848 | 77.15354 | 26979 ft | 434 kts | 146° |
| 2026-05-05 10:34 | 13.92321 | 77.16997 | 26504 ft | 429 kts | 146° |
| 2026-05-05 10:34 | 13.89788 | 77.18642 | 26025 ft | 425 kts | 146° |
| 2026-05-05 10:34 | 13.87304 | 77.20256 | 25555 ft | 421 kts | 146° |
| 2026-05-05 10:35 | 13.84798 | 77.21883 | 25081 ft | 418 kts | 146° |
| 2026-05-05 10:35 | 13.82222 | 77.23555 | 24587 ft | 414 kts | 146° |
| 2026-05-05 10:35 | 13.79635 | 77.25234 | 24091 ft | 410 kts | 146° |
| 2026-05-05 10:35 | 13.77079 | 77.26894 | 23596 ft | 407 kts | 146° |
| 2026-05-05 10:36 | 13.74554 | 77.28532 | 23109 ft | 403 kts | 146° |
| 2026-05-05 10:36 | 13.72172 | 77.30077 | 22647 ft | 400 kts | 146° |
| 2026-05-05 10:36 | 13.69773 | 77.31632 | 22181 ft | 397 kts | 146° |
| 2026-05-05 10:36 | 13.67445 | 77.33141 | 21724 ft | 394 kts | 146° |
| 2026-05-05 10:37 | 13.65180 | 77.34609 | 21279 ft | 391 kts | 146° |
| 2026-05-05 10:37 | 13.62689 | 77.36223 | 20785 ft | 388 kts | 146° |
| 2026-05-05 10:37 | 13.60205 | 77.37832 | 20292 ft | 385 kts | 146° |
| 2026-05-05 10:37 | 13.57764 | 77.39497 | 19799 ft | 382 kts | 142° |
| 2026-05-05 10:38 | 13.55465 | 77.41221 | 19318 ft | 379 kts | 142° |
| 2026-05-05 10:38 | 13.53232 | 77.42915 | 18849 ft | 376 kts | 142° |
| 2026-05-05 10:38 | 13.51097 | 77.44537 | 18399 ft | 374 kts | 142° |
| 2026-05-05 10:38 | 13.48813 | 77.46269 | 17915 ft | 371 kts | 142° |
| 2026-05-05 10:39 | 13.46606 | 77.47941 | 17446 ft | 369 kts | 142° |
| 2026-05-05 10:39 | 13.44352 | 77.49646 | 16966 ft | 367 kts | 142° |
| 2026-05-05 10:39 | 13.42157 | 77.51305 | 16607 ft | 360 kts | 142° |
| 2026-05-05 10:39 | 13.40036 | 77.52906 | 16562 ft | 344 kts | 142° |
| 2026-05-05 10:40 | 13.38022 | 77.54426 | 16514 ft | 330 kts | 142° |
| 2026-05-05 10:40 | 13.36069 | 77.55900 | 16456 ft | 321 kts | 142° |
| 2026-05-05 10:40 | 13.34058 | 77.57423 | 16361 ft | 334 kts | 142° |
| 2026-05-05 10:40 | 13.32055 | 77.59000 | 16205 ft | 324 kts | 134° |
| 2026-05-05 10:41 | 13.30803 | 77.61045 | 15959 ft | 308 kts | 102° |
| 2026-05-05 10:41 | 13.30640 | 77.63375 | 15770 ft | 293 kts | 84° |
| 2026-05-05 10:41 | 13.30832 | 77.65617 | 15472 ft | 287 kts | 83° |
| 2026-05-05 10:41 | 13.30970 | 77.67841 | 15048 ft | 286 kts | 86° |
| 2026-05-05 10:42 | 13.31026 | 77.72317 | 14211 ft | 284 kts | 88° |
| 2026-05-05 10:42 | 13.31018 | 77.74524 | 13801 ft | 282 kts | 89° |
| 2026-05-05 10:42 | 13.31003 | 77.76736 | 13391 ft | 281 kts | 89° |
| 2026-05-05 10:43 | 13.30986 | 77.78945 | 12980 ft | 279 kts | 89° |
| 2026-05-05 10:43 | 13.30969 | 77.80959 | 12630 ft | 275 kts | 89° |
| 2026-05-05 10:43 | 13.30951 | 77.82921 | 12273 ft | 270 kts | 89° |
| 2026-05-05 10:43 | 13.30934 | 77.84844 | 11887 ft | 265 kts | 89° |
| 2026-05-05 10:44 | 13.30917 | 77.86755 | 11488 ft | 261 kts | 89° |
| 2026-05-05 10:44 | 13.30900 | 77.88625 | 11095 ft | 256 kts | 89° |
| 2026-05-05 10:44 | 13.30884 | 77.90440 | 10675 ft | 254 kts | 89° |
| 2026-05-05 10:44 | 13.30867 | 77.92280 | 10214 ft | 253 kts | 89° |
| 2026-05-05 10:45 | 13.30849 | 77.94085 | 9763 ft | 252 kts | 89° |
| 2026-05-05 10:45 | 13.30831 | 77.95873 | 9499 ft | 239 kts | 89° |
| 2026-05-05 10:45 | 13.30810 | 77.97536 | 9297 ft | 224 kts | 89° |
| 2026-05-05 10:45 | 13.30788 | 77.99091 | 9049 ft | 211 kts | 89° |
| 2026-05-05 10:46 | 13.30741 | 78.00574 | 8786 ft | 200 kts | 96° |
| 2026-05-05 10:46 | 13.30147 | 78.01875 | 8358 ft | 199 kts | 135° |
| 2026-05-05 10:46 | 13.28841 | 78.02502 | 7960 ft | 194 kts | 178° |
| 2026-05-05 10:46 | 13.27512 | 78.02090 | 7598 ft | 184 kts | 222° |
| 2026-05-05 10:47 | 13.26614 | 78.01051 | 7197 ft | 180 kts | 236° |
| 2026-05-05 10:47 | 13.25876 | 77.99942 | 6804 ft | 179 kts | 238° |
| 2026-05-05 10:47 | 13.25190 | 77.98867 | 6430 ft | 178 kts | 239° |
| 2026-05-05 10:47 | 13.24518 | 77.97806 | 6087 ft | 175 kts | 239° |
| 2026-05-05 10:48 | 13.23847 | 77.96744 | 6024 ft | 175 kts | 239° |
| 2026-05-05 10:48 | 13.23171 | 77.95673 | 6017 ft | 176 kts | 239° |
| 2026-05-05 10:48 | 13.22480 | 77.94579 | 6013 ft | 176 kts | 239° |
| 2026-05-05 10:48 | 13.21777 | 77.93467 | 6011 ft | 176 kts | 239° |
| 2026-05-05 10:49 | 13.21102 | 77.92307 | 6008 ft | 175 kts | 248° |
| 2026-05-05 10:49 | 13.20719 | 77.91045 | 6011 ft | 174 kts | 262° |
| 2026-05-05 10:49 | 13.20578 | 77.89795 | 6011 ft | 173 kts | 269° |
| 2026-05-05 10:49 | 13.20549 | 77.88551 | 5968 ft | 173 kts | 272° |
| 2026-05-05 10:50 | 13.20556 | 77.87302 | 5792 ft | 172 kts | 272° |
| 2026-05-05 10:50 | 13.20569 | 77.86073 | 5559 ft | 165 kts | 272° |
| 2026-05-05 10:50 | 13.20581 | 77.84913 | 5314 ft | 158 kts | 272° |
| 2026-05-05 10:50 | 13.20591 | 77.83755 | 5091 ft | 157 kts | 272° |
| 2026-05-05 10:51 | 13.20601 | 77.82578 | 4869 ft | 156 kts | 272° |
| 2026-05-05 10:51 | 13.20610 | 77.81418 | 4655 ft | 156 kts | 272° |
| 2026-05-05 10:51 | 13.20618 | 77.80288 | 4448 ft | 155 kts | 272° |
| 2026-05-05 10:51 | 13.20627 | 77.79150 | 4241 ft | 155 kts | 272° |
| 2026-05-05 10:52 | 13.20636 | 77.78020 | 4033 ft | 154 kts | 272° |
| 2026-05-05 10:52 | 13.20645 | 77.76899 | 3826 ft | 154 kts | 272° |
| 2026-05-05 10:52 | 13.20655 | 77.75758 | 3612 ft | 153 kts | 272° |
| 2026-05-05 10:52 | 13.20664 | 77.74641 | 3403 ft | 152 kts | 272° |
| 2026-05-05 10:53 | 13.20673 | 77.73526 | 3195 ft | 152 kts | 272° |
| 2026-05-05 10:53 | 13.20683 | 77.72395 | 3002 ft | 151 kts | 272° |
| 2026-05-05 10:53 | 13.20692 | 77.71326 | 2935 ft | 129 kts | 271° |
| 2026-05-05 10:53 | 13.20701 | 77.70567 | 2980 ft | 82 kts | 272° |
| 2026-05-05 10:54 | 13.20692 | 77.70167 | 2992 ft | 31 kts | 259° |
| 2026-05-05 10:54 | 13.20654 | 77.70046 | 2993 ft | 10 kts | 244° |
| 2026-05-05 10:54 | 13.20627 | 77.69994 | 2993 ft | 6 kts | 241° |
| 2026-05-05 10:54 | 13.20608 | 77.69962 | 2992 ft | 4 kts | 233° |
| 2026-05-05 10:55 | 13.20575 | 77.69933 | 2991 ft | 7 kts | 204° |
| 2026-05-05 10:55 | 13.20536 | 77.69960 | 2989 ft | 7 kts | 111° |
| 2026-05-05 10:55 | 13.20532 | 77.70016 | 2989 ft | 7 kts | 91° |
| 2026-05-05 10:55 | 13.20531 | 77.70066 | 2990 ft | 6 kts | 91° |
| 2026-05-05 10:56 | 13.20531 | 77.70091 | 2991 ft | 0 kts | 89° |
| 2026-05-05 10:57 | 13.20531 | 77.70093 | 2991 ft | 0 kts | 89° |
| 2026-05-05 10:57 | 13.20531 | 77.70104 | 2991 ft | 2 kts | 89° |
| 2026-05-05 10:58 | 13.20531 | 77.70128 | 2991 ft | 3 kts | 89° |
| 2026-05-05 10:58 | 13.20532 | 77.70169 | 2991 ft | 7 kts | 90° |
| 2026-05-05 10:58 | 13.20530 | 77.70241 | 2990 ft | 11 kts | 91° |
| 2026-05-05 10:58 | 13.20529 | 77.70334 | 2988 ft | 13 kts | 91° |
| 2026-05-05 10:59 | 13.20473 | 77.70390 | 2986 ft | 12 kts | 172° |
| 2026-05-05 10:59 | 13.20406 | 77.70393 | 2985 ft | 4 kts | 180° |
| 2026-05-05 10:59 | 13.20365 | 77.70393 | 2984 ft | 6 kts | 180° |
| 2026-05-05 10:59 | 13.20336 | 77.70393 | 2983 ft | 4 kts | 180° |
| 2026-05-05 11:00 | 13.20309 | 77.70393 | 2983 ft | 2 kts | 180° |
| 2026-05-05 11:00 | 13.20288 | 77.70396 | 2983 ft | 3 kts | 160° |
| 2026-05-05 11:00 | 13.20268 | 77.70415 | 2983 ft | 4 kts | 117° |
| 2026-05-05 11:00 | 13.20264 | 77.70442 | 2982 ft | 2 kts | 93° |
| 2026-05-05 11:01 | 13.20263 | 77.70466 | 2982 ft | 2 kts | 91° |
| 2026-05-05 11:01 | 13.20263 | 77.70492 | 2981 ft | 4 kts | 81° |
| 2026-05-05 11:01 | 13.20281 | 77.70506 | 2981 ft | 3 kts | 11° |
| 2026-05-05 11:01 | 13.20304 | 77.70507 | 2981 ft | 2 kts | 359° |
| 2026-05-05 11:02 | 13.20319 | 77.70507 | 2981 ft | 2 kts | 0° |
| 2026-05-05 11:02 | 13.20336 | 77.70507 | 2981 ft | 2 kts | 0° |
| 2026-05-05 11:02 | 13.20349 | 77.70507 | 2981 ft | 1 kts | 360° |
| 2026-05-05 11:02 | 13.20352 | 77.70507 | 2981 ft | 0 kts | 360° |
| 2026-05-05 11:03 | 13.20353 | 77.70507 | 2981 ft | 0 kts | 360° |
| 2026-05-05 11:03 | 13.20354 | 77.70507 | 2981 ft | 0 kts | 360° |
| 2026-05-05 11:03 | 13.20356 | 77.70507 | 2981 ft | 0 kts | 360° |
| 2026-05-05 11:03 | 13.20358 | 77.70507 | 2981 ft | 0 kts | 360° |